createdAt,value
2018-09-17T00:01:16.568Z,16.00
2018-09-17T00:03:44.914Z,15.80
2018-09-17T00:06:13.540Z,15.80
2018-09-17T00:08:41.886Z,15.80
2018-09-17T00:11:10.304Z,15.80
2018-09-17T00:13:38.681Z,15.80
2018-09-17T00:16:07.361Z,15.70
2018-09-17T00:18:35.678Z,15.60
2018-09-17T00:21:04.436Z,15.70
2018-09-17T00:23:32.820Z,15.60
2018-09-17T00:26:01.337Z,15.60
2018-09-17T00:28:29.733Z,15.60
2018-09-17T00:30:58.103Z,15.60
2018-09-17T00:33:26.576Z,15.60
2018-09-17T00:35:54.967Z,15.50
2018-09-17T00:38:23.331Z,15.50
2018-09-17T00:40:51.655Z,15.50
2018-09-17T00:43:20.234Z,15.50
2018-09-17T00:45:48.737Z,15.50
2018-09-17T00:48:17.140Z,15.50
2018-09-17T00:50:45.567Z,15.40
2018-09-17T00:53:14.111Z,15.50
2018-09-17T00:55:42.531Z,15.50
2018-09-17T00:58:10.921Z,15.40
2018-09-17T01:00:39.714Z,15.40
2018-09-17T01:03:08.088Z,15.40
2018-09-17T01:05:36.559Z,15.30
2018-09-17T01:08:05.040Z,15.30
2018-09-17T01:10:33.423Z,15.20
2018-09-17T01:13:01.783Z,15.20
2018-09-17T01:15:30.204Z,15.20
2018-09-17T01:17:58.616Z,15.10
2018-09-17T01:20:27.006Z,15.10
2018-09-17T01:22:55.344Z,15.00
2018-09-17T01:25:23.746Z,14.90
2018-09-17T01:27:52.117Z,15.00
2018-09-17T01:30:20.700Z,15.00
2018-09-17T01:32:49.037Z,14.80
2018-09-17T01:35:17.392Z,14.80
2018-09-17T01:37:45.807Z,14.80
2018-09-17T01:40:14.164Z,14.80
2018-09-17T01:42:42.632Z,14.80
2018-09-17T01:45:11.010Z,14.80
2018-09-17T01:47:39.384Z,14.70
2018-09-17T01:50:07.911Z,14.70
2018-09-17T01:52:36.410Z,14.70
2018-09-17T01:55:04.863Z,14.70
2018-09-17T01:57:33.304Z,14.70
2018-09-17T02:00:01.653Z,14.70
2018-09-17T02:02:30.100Z,14.70
2018-09-17T02:04:58.432Z,14.70
2018-09-17T02:07:26.988Z,14.50
2018-09-17T02:09:55.963Z,14.50
2018-09-17T02:12:24.695Z,14.50
2018-09-17T02:14:53.064Z,14.50
2018-09-17T02:17:21.411Z,14.50
2018-09-17T02:19:49.754Z,14.50
2018-09-17T02:22:18.326Z,14.50
2018-09-17T02:24:47.232Z,14.40
2018-09-17T02:27:15.918Z,14.40
2018-09-17T02:29:44.400Z,14.30
2018-09-17T02:32:12.784Z,14.40
2018-09-17T02:34:41.177Z,14.30
2018-09-17T02:37:09.522Z,14.30
2018-09-17T02:39:37.882Z,14.30
2018-09-17T02:42:07.197Z,14.20
2018-09-17T02:44:35.676Z,14.10
2018-09-17T02:47:04.032Z,14.20
2018-09-17T02:49:32.448Z,14.20
2018-09-17T02:52:00.874Z,14.30
2018-09-17T02:54:29.335Z,14.30
2018-09-17T02:56:58.344Z,14.20
2018-09-17T02:59:27.317Z,14.20
2018-09-17T03:01:55.859Z,14.10
2018-09-17T03:04:24.301Z,14.10
2018-09-17T03:06:52.724Z,14.10
2018-09-17T03:09:21.129Z,14.10
2018-09-17T03:11:49.467Z,14.10
2018-09-17T03:14:24.049Z,14.10
2018-09-17T03:17:03.669Z,14.10
2018-09-17T03:19:32.056Z,14.10
2018-09-17T03:22:00.443Z,14.00
2018-09-17T03:24:28.868Z,14.00
2018-09-17T03:26:57.325Z,14.00
2018-09-17T03:29:25.827Z,13.90
2018-09-17T03:31:54.176Z,14.00
2018-09-17T03:34:22.625Z,13.90
2018-09-17T03:36:51.035Z,13.90
2018-09-17T03:39:19.416Z,13.80
2018-09-17T03:41:47.933Z,13.80
2018-09-17T03:44:16.346Z,13.80
2018-09-17T03:46:44.688Z,13.70
2018-09-17T03:49:13.036Z,13.70
2018-09-17T03:51:41.345Z,13.70
2018-09-17T03:54:09.740Z,13.70
2018-09-17T03:56:38.460Z,13.70
2018-09-17T03:59:06.770Z,13.70
2018-09-17T04:01:35.146Z,13.70
2018-09-17T04:04:03.636Z,13.60
2018-09-17T04:06:32.065Z,13.70
2018-09-17T04:09:00.375Z,13.60
2018-09-17T04:11:28.756Z,13.50
2018-09-17T04:13:57.324Z,13.50
2018-09-17T04:16:26.597Z,13.50
2018-09-17T04:18:55.385Z,13.40
2018-09-17T04:21:23.723Z,13.50
2018-09-17T04:23:52.078Z,13.50
2018-09-17T04:26:20.516Z,13.50
2018-09-17T04:28:48.888Z,13.40
2018-09-17T04:31:17.295Z,13.30
2018-09-17T04:33:45.678Z,13.30
2018-09-17T04:36:14.649Z,13.20
2018-09-17T04:38:43.037Z,13.20
2018-09-17T04:41:11.398Z,13.20
2018-09-17T04:43:40.044Z,13.20
2018-09-17T04:46:08.423Z,13.10
2018-09-17T04:48:36.851Z,13.20
2018-09-17T04:51:05.807Z,13.20
2018-09-17T04:53:34.208Z,13.20
2018-09-17T04:56:02.554Z,13.20
2018-09-17T04:58:30.943Z,13.20
2018-09-17T05:00:59.271Z,13.20
2018-09-17T05:03:27.692Z,13.30
2018-09-17T05:05:56.073Z,13.20
2018-09-17T05:08:24.503Z,13.10
2018-09-17T05:13:35.094Z,13.20
2018-09-17T05:16:03.563Z,13.20
2018-09-17T05:18:32.147Z,13.10
2018-09-17T05:21:00.524Z,13.10
2018-09-17T05:23:29.008Z,13.10
2018-09-17T05:25:57.491Z,13.10
2018-09-17T05:28:25.882Z,13.20
2018-09-17T05:30:54.313Z,13.10
2018-09-17T05:33:23.003Z,13.00
2018-09-17T05:35:51.369Z,13.10
2018-09-17T05:38:19.683Z,13.10
2018-09-17T05:40:48.116Z,13.20
2018-09-17T05:43:16.481Z,13.20
2018-09-17T05:45:44.872Z,13.10
2018-09-17T05:48:13.200Z,13.10
2018-09-17T05:50:41.551Z,13.00
2018-09-17T05:53:09.883Z,13.10
2018-09-17T05:55:38.277Z,13.10
2018-09-17T05:58:06.623Z,13.20
2018-09-17T06:00:35.125Z,13.20
2018-09-17T06:03:03.444Z,13.30
2018-09-17T06:05:31.821Z,13.30
2018-09-17T06:08:00.304Z,13.40
2018-09-17T06:10:28.662Z,13.40
2018-09-17T06:12:56.975Z,13.40
2018-09-17T06:15:25.348Z,13.50
2018-09-17T06:17:53.698Z,13.50
2018-09-17T06:20:22.069Z,13.60
2018-09-17T06:22:50.480Z,13.60
2018-09-17T06:25:18.880Z,13.60
2018-09-17T06:27:47.267Z,13.70
2018-09-17T06:30:22.278Z,13.80
2018-09-17T06:32:50.667Z,13.80
2018-09-17T06:35:18.971Z,13.90
2018-09-17T06:37:47.372Z,14.00
2018-09-17T06:40:15.714Z,14.00
2018-09-17T06:42:44.172Z,14.10
2018-09-17T06:45:12.548Z,14.20
2018-09-17T06:47:41.305Z,14.10
2018-09-17T06:50:09.661Z,14.10
2018-09-17T06:52:38.076Z,14.30
2018-09-17T06:55:06.420Z,14.30
2018-09-17T06:57:35.319Z,14.40
2018-09-17T07:00:03.752Z,14.50
2018-09-17T07:02:32.128Z,14.60
2018-09-17T07:05:00.470Z,14.70
2018-09-17T07:07:28.816Z,14.80
2018-09-17T07:09:57.168Z,14.90
2018-09-17T07:12:25.544Z,15.00
2018-09-17T07:14:53.935Z,15.10
2018-09-17T07:17:22.287Z,15.20
2018-09-17T07:19:50.687Z,15.30
2018-09-17T07:22:19.005Z,15.30
2018-09-17T07:24:47.355Z,15.40
2018-09-17T07:27:15.972Z,15.50
2018-09-17T07:29:44.721Z,15.70
2018-09-17T07:32:13.108Z,15.70
2018-09-17T07:34:42.475Z,15.90
2018-09-17T07:37:11.023Z,15.70
2018-09-17T07:39:39.411Z,15.90
2018-09-17T07:42:08.736Z,16.00
2018-09-17T07:44:37.164Z,16.10
2018-09-17T07:47:05.708Z,16.20
2018-09-17T07:49:34.003Z,16.30
2018-09-17T07:52:02.299Z,16.50
2018-09-17T07:54:30.620Z,16.60
2018-09-17T07:56:59.187Z,16.70
2018-09-17T07:59:27.771Z,16.70
2018-09-17T08:01:56.160Z,16.90
2018-09-17T08:04:31.943Z,17.00
2018-09-17T08:07:00.238Z,17.10
2018-09-17T08:09:28.660Z,17.20
2018-09-17T08:11:57.061Z,17.30
2018-09-17T08:14:25.447Z,17.30
2018-09-17T08:16:53.870Z,17.40
2018-09-17T08:19:22.330Z,17.50
2018-09-17T08:21:50.721Z,17.50
2018-09-17T08:24:19.134Z,17.60
2018-09-17T08:26:47.698Z,17.70
2018-09-17T08:29:16.061Z,17.80
2018-09-17T08:31:44.375Z,17.90
2018-09-17T08:34:12.716Z,18.00
2018-09-17T08:36:41.021Z,18.00
2018-09-17T08:39:12.275Z,18.00
2018-09-17T08:41:41.152Z,17.90
2018-09-17T08:44:10.307Z,18.00
2018-09-17T08:46:40.774Z,18.10
2018-09-17T08:49:09.199Z,18.40
2018-09-17T08:51:37.957Z,18.50
2018-09-17T08:54:06.436Z,18.60
2018-09-17T08:56:40.059Z,18.70
2018-09-17T08:59:13.904Z,18.70
2018-09-17T09:01:47.895Z,18.80
2018-09-17T09:04:21.681Z,18.90
2018-09-17T09:07:00.055Z,19.00
2018-09-17T09:09:28.511Z,19.20
2018-09-17T09:11:59.830Z,19.30
2018-09-17T09:14:33.645Z,19.40
2018-09-17T09:17:02.006Z,19.50
2018-09-17T09:19:30.387Z,19.60
2018-09-17T09:21:58.708Z,19.70
2018-09-17T09:24:27.044Z,19.80
2018-09-17T09:26:55.436Z,19.90
2018-09-17T09:29:23.791Z,19.90
2018-09-17T09:31:52.222Z,19.90
2018-09-17T09:34:20.560Z,19.90
2018-09-17T09:36:49.036Z,20.00
2018-09-17T09:39:17.348Z,20.00
2018-09-17T09:41:45.701Z,20.00
2018-09-17T09:44:14.035Z,20.20
2018-09-17T09:46:42.388Z,20.30
2018-09-17T09:49:10.710Z,20.40
2018-09-17T09:51:39.032Z,20.50
2018-09-17T09:54:10.444Z,20.60
2018-09-17T09:57:43.231Z,20.60
2018-09-17T10:00:17.689Z,20.80
2018-09-17T10:02:52.302Z,20.90
2018-09-17T10:05:21.078Z,21.10
2018-09-17T10:07:49.868Z,21.10
2018-09-17T10:10:23.900Z,21.20
2018-09-17T10:12:57.941Z,21.30
2018-09-17T10:15:31.854Z,21.30
2018-09-17T10:18:05.732Z,21.40
2018-09-17T10:20:34.476Z,21.50
2018-09-17T10:23:02.774Z,21.60
2018-09-17T10:25:31.111Z,21.70
2018-09-17T10:27:59.519Z,21.80
2018-09-17T10:30:27.912Z,21.70
2018-09-17T10:33:03.184Z,21.90
2018-09-17T10:35:33.252Z,21.90
2018-09-17T10:38:01.631Z,21.90
2018-09-17T10:40:30.180Z,22.00
2018-09-17T10:42:58.575Z,22.00
2018-09-17T10:45:28.059Z,22.10
2018-09-17T10:47:56.396Z,22.20
2018-09-17T10:50:24.792Z,22.30
2018-09-17T10:52:53.310Z,22.40
2018-09-17T10:55:21.881Z,22.50
2018-09-17T10:57:50.240Z,22.50
2018-09-17T11:00:18.719Z,22.70
2018-09-17T11:02:47.201Z,22.70
2018-09-17T11:05:15.611Z,22.80
2018-09-17T11:07:44.032Z,22.80
2018-09-17T11:10:12.444Z,22.90
2018-09-17T11:12:40.903Z,22.90
2018-09-17T11:15:09.290Z,22.90
2018-09-17T11:17:37.871Z,23.00
2018-09-17T11:20:06.242Z,23.00
2018-09-17T11:22:34.680Z,23.10
2018-09-17T11:25:03.063Z,23.20
2018-09-17T11:27:31.597Z,23.30
2018-09-17T11:29:59.944Z,23.40
2018-09-17T11:32:28.388Z,23.50
2018-09-17T11:34:56.711Z,23.60
2018-09-17T11:37:25.038Z,23.70
2018-09-17T11:39:53.360Z,23.80
2018-09-17T11:42:21.719Z,23.90
2018-09-17T11:44:50.048Z,23.90
2018-09-17T11:47:18.537Z,23.90
2018-09-17T11:49:46.896Z,24.00
2018-09-17T11:52:15.263Z,24.10
2018-09-17T11:54:43.656Z,24.10
2018-09-17T11:57:11.980Z,24.20
2018-09-17T11:59:40.359Z,24.30
2018-09-17T12:02:14.245Z,24.30
2018-09-17T12:04:47.927Z,24.40
2018-09-17T12:07:21.679Z,24.50
2018-09-17T12:09:50.091Z,24.50
2018-09-17T12:12:18.443Z,24.60
2018-09-17T12:14:46.754Z,24.70
2018-09-17T12:17:15.080Z,24.80
2018-09-17T12:19:43.423Z,24.90
2018-09-17T12:22:11.771Z,24.90
2018-09-17T12:24:40.462Z,25.00
2018-09-17T12:27:08.963Z,25.10
2018-09-17T12:29:37.443Z,25.20
2018-09-17T12:32:05.808Z,25.20
2018-09-17T12:34:35.006Z,25.40
2018-09-17T12:37:03.426Z,25.50
2018-09-17T12:39:32.024Z,25.60
2018-09-17T12:42:00.404Z,25.60
2018-09-17T12:44:28.752Z,25.70
2018-09-17T12:46:57.089Z,25.80
2018-09-17T12:49:25.451Z,25.80
2018-09-17T12:51:53.789Z,25.90
2018-09-17T12:54:22.159Z,26.00
2018-09-17T12:56:50.499Z,26.10
2018-09-17T12:59:18.855Z,26.10
2018-09-17T13:01:47.199Z,26.20
2018-09-17T13:04:15.563Z,26.30
2018-09-17T13:06:43.870Z,26.40
2018-09-17T13:09:12.483Z,26.60
2018-09-17T13:11:41.349Z,26.60
2018-09-17T13:14:09.702Z,26.60
2018-09-17T13:16:38.932Z,26.70
2018-09-17T13:19:08.647Z,26.60
2018-09-17T13:21:36.987Z,26.70
2018-09-17T13:24:06.075Z,26.70
2018-09-17T13:26:34.400Z,26.80
2018-09-17T13:29:03.076Z,26.90
2018-09-17T13:31:31.792Z,27.00
2018-09-17T13:34:00.137Z,27.10
2018-09-17T13:36:29.120Z,27.20
2018-09-17T13:38:57.678Z,27.30
2018-09-17T13:41:26.120Z,27.50
2018-09-17T13:43:54.612Z,27.70
2018-09-17T13:46:22.944Z,27.90
2018-09-17T13:48:51.251Z,28.30
2018-09-17T13:51:19.820Z,28.50
2018-09-17T13:53:48.136Z,28.70
2018-09-17T13:56:17.219Z,29.10
2018-09-17T13:58:46.148Z,29.40
2018-09-17T14:01:14.535Z,29.40
2018-09-17T14:03:42.907Z,30.00
2018-09-17T14:06:11.270Z,30.10
2018-09-17T14:08:39.718Z,30.50
2018-09-17T14:11:09.460Z,30.70
2018-09-17T14:13:38.157Z,31.00
2018-09-17T14:16:09.057Z,31.10
2018-09-17T14:21:16.734Z,31.50
2018-09-17T14:23:45.096Z,31.40
2018-09-17T14:26:13.538Z,32.10
2018-09-17T14:28:42.059Z,32.20
2018-09-17T14:31:10.448Z,32.50
2018-09-17T14:33:39.923Z,32.60
2018-09-17T14:36:08.231Z,32.30
2018-09-17T14:38:36.647Z,32.60
2018-09-17T14:41:05.002Z,33.00
2018-09-17T14:43:33.433Z,32.80
2018-09-17T14:46:03.839Z,33.00
2018-09-17T14:48:34.131Z,33.20
2018-09-17T14:51:02.550Z,33.40
2018-09-17T14:53:30.976Z,34.10
2018-09-17T14:55:59.272Z,34.50
2018-09-17T14:58:27.710Z,35.10
2018-09-17T15:00:55.963Z,34.90
2018-09-17T15:03:24.294Z,35.60
2018-09-17T15:05:52.643Z,34.90
2018-09-17T15:08:21.008Z,34.40
2018-09-17T15:10:49.328Z,34.00
2018-09-17T15:13:17.742Z,33.80
2018-09-17T15:15:46.715Z,33.60
2018-09-17T15:18:15.914Z,33.40
2018-09-17T15:20:44.339Z,32.80
2018-09-17T15:23:12.699Z,32.50
2018-09-17T15:25:40.997Z,32.50
2018-09-17T15:28:09.431Z,32.20
2018-09-17T15:30:37.689Z,31.80
2018-09-17T15:33:06.095Z,31.60
2018-09-17T15:35:34.401Z,31.00
2018-09-17T15:38:02.870Z,30.70
2018-09-17T15:40:31.293Z,30.80
2018-09-17T15:42:59.555Z,30.50
2018-09-17T15:45:27.952Z,30.30
2018-09-17T15:47:56.341Z,30.20
2018-09-17T15:50:24.709Z,30.10
2018-09-17T15:52:53.139Z,30.00
2018-09-17T15:55:21.543Z,30.00
2018-09-17T15:57:49.956Z,29.90
2018-09-17T16:02:59.658Z,29.80
2018-09-17T16:05:27.907Z,29.60
2018-09-17T16:07:56.203Z,29.40
2018-09-17T16:10:24.549Z,29.20
2018-09-17T16:12:53.085Z,28.90
2018-09-17T16:15:21.431Z,29.10
2018-09-17T16:17:51.801Z,29.00
2018-09-17T16:20:20.802Z,28.90
2018-09-17T16:22:49.307Z,28.70
2018-09-17T16:25:17.690Z,28.40
2018-09-17T16:27:45.981Z,28.30
2018-09-17T16:30:14.348Z,28.30
2018-09-17T16:32:42.637Z,28.30
2018-09-17T16:35:11.013Z,28.20
2018-09-17T16:37:39.333Z,28.10
2018-09-17T16:40:07.824Z,28.10
2018-09-17T16:42:36.149Z,28.00
2018-09-17T16:45:04.487Z,27.90
2018-09-17T16:47:32.808Z,27.90
2018-09-17T16:50:01.258Z,27.80
2018-09-17T16:52:29.606Z,27.60
2018-09-17T16:54:57.983Z,27.40
2018-09-17T16:57:26.556Z,27.30
2018-09-17T16:59:55.091Z,27.20
2018-09-17T17:02:23.288Z,27.10
2018-09-17T17:04:51.762Z,27.00
2018-09-17T17:07:20.045Z,27.00
2018-09-17T17:09:48.446Z,26.80
2018-09-17T17:12:16.788Z,26.80
2018-09-17T17:14:45.104Z,26.60
2018-09-17T17:17:13.423Z,26.50
2018-09-17T17:19:41.783Z,26.40
2018-09-17T17:22:10.204Z,26.30
2018-09-17T17:24:38.530Z,26.20
2018-09-17T17:27:06.863Z,26.00
2018-09-17T17:29:35.148Z,25.90
2018-09-17T17:32:03.534Z,25.80
2018-09-17T17:34:31.826Z,25.70
2018-09-17T17:37:00.147Z,25.60
2018-09-17T17:39:28.472Z,25.50
2018-09-17T17:41:56.808Z,25.30
2018-09-17T17:44:31.655Z,25.30
2018-09-17T17:46:59.956Z,25.20
2018-09-17T17:49:28.389Z,25.10
2018-09-17T17:51:56.807Z,25.00
2018-09-17T17:54:25.186Z,25.00
2018-09-17T17:56:53.457Z,24.90
2018-09-17T17:59:21.745Z,24.80
2018-09-17T18:01:50.038Z,24.70
2018-09-17T18:04:18.419Z,24.60
2018-09-17T18:06:46.836Z,24.50
2018-09-17T18:09:15.057Z,24.40
2018-09-17T18:11:43.420Z,24.40
2018-09-17T18:14:11.737Z,24.20
2018-09-17T18:16:40.082Z,24.10
2018-09-17T18:19:08.412Z,24.10
2018-09-17T18:21:36.737Z,24.10
2018-09-17T18:24:05.024Z,23.90
2018-09-17T18:26:33.455Z,23.90
2018-09-17T18:29:01.808Z,23.80
2018-09-17T18:31:30.214Z,23.70
2018-09-17T18:33:58.543Z,23.70
2018-09-17T18:36:26.963Z,23.60
2018-09-17T18:38:55.353Z,23.60
2018-09-17T18:41:23.642Z,23.40
2018-09-17T18:43:51.956Z,23.40
2018-09-17T18:46:20.261Z,23.40
2018-09-17T18:48:48.608Z,23.30
2018-09-17T18:51:16.998Z,23.20
2018-09-17T18:53:45.374Z,23.10
2018-09-17T18:56:13.652Z,23.00
2018-09-17T18:58:41.975Z,22.90
2018-09-17T19:01:10.327Z,22.90
2018-09-17T19:03:38.758Z,22.80
2018-09-17T19:06:07.284Z,22.70
2018-09-17T19:08:35.849Z,22.70
2018-09-17T19:11:11.206Z,22.60
2018-09-17T19:13:39.571Z,22.60
2018-09-17T19:16:07.959Z,22.60
2018-09-17T19:18:36.440Z,22.40
2018-09-17T19:21:04.903Z,22.40
2018-09-17T19:23:38.768Z,22.40
2018-09-17T19:26:07.193Z,22.40
2018-09-17T19:28:41.708Z,22.20
2018-09-17T19:31:11.891Z,22.20
2018-09-17T19:33:40.281Z,22.10
2018-09-17T19:36:08.747Z,22.00
2018-09-17T19:38:42.500Z,22.00
2018-09-17T19:41:10.928Z,21.90
2018-09-17T19:43:39.288Z,21.80
2018-09-17T19:46:13.350Z,21.80
2018-09-17T19:48:41.592Z,21.80
2018-09-17T19:51:15.303Z,21.70
2018-09-17T19:53:44.302Z,21.60
2018-09-17T19:56:12.878Z,21.60
2018-09-17T19:58:46.635Z,21.50
2018-09-17T20:01:15.183Z,21.40
2018-09-17T20:03:43.740Z,21.40
2018-09-17T20:06:17.479Z,21.30
2018-09-17T20:08:46.204Z,21.20
2018-09-17T20:11:14.602Z,21.20
2018-09-17T20:13:42.960Z,21.20
2018-09-17T20:16:11.400Z,21.20
2018-09-17T20:18:39.752Z,21.20
2018-09-17T20:21:08.080Z,21.00
2018-09-17T20:23:37.534Z,21.00
2018-09-17T20:26:06.043Z,20.90
2018-09-17T20:28:34.998Z,20.80
2018-09-17T20:31:03.903Z,20.80
2018-09-17T20:33:33.913Z,20.70
2018-09-17T20:36:02.235Z,20.70
2018-09-17T20:38:30.915Z,20.60
2018-09-17T20:40:59.546Z,20.60
2018-09-17T20:43:28.831Z,20.50
2018-09-17T20:45:57.144Z,20.50
2018-09-17T20:48:26.442Z,20.40
2018-09-17T20:50:54.897Z,20.40
2018-09-17T20:53:23.876Z,20.30
2018-09-17T20:55:52.477Z,20.30
2018-09-17T20:58:20.837Z,20.20
2018-09-17T21:00:49.242Z,20.20
2018-09-17T21:03:17.558Z,20.10
2018-09-17T21:05:45.882Z,20.00
2018-09-17T21:08:15.459Z,20.00
2018-09-17T21:10:44.703Z,19.90
2018-09-17T21:13:15.145Z,19.80
2018-09-17T21:15:45.826Z,19.80
2018-09-17T21:18:16.104Z,19.70
2018-09-17T21:20:44.447Z,19.60
2018-09-17T21:23:13.765Z,19.60
2018-09-17T21:25:43.847Z,19.60
2018-09-17T21:28:12.170Z,19.60
2018-09-17T21:30:41.319Z,19.50
2018-09-17T21:33:09.715Z,19.40
2018-09-17T21:35:38.137Z,19.40
2018-09-17T21:38:06.467Z,19.40
2018-09-17T21:40:34.825Z,19.30
2018-09-17T21:43:03.166Z,19.40
2018-09-17T21:45:32.900Z,19.30
2018-09-17T21:48:01.314Z,19.30
2018-09-17T21:50:30.879Z,19.20
2018-09-17T21:52:59.323Z,19.20
2018-09-17T21:55:27.634Z,19.10
2018-09-17T21:57:55.969Z,19.00
2018-09-17T22:00:25.574Z,19.00
2018-09-17T22:02:53.912Z,18.90
2018-09-17T22:05:22.253Z,18.90
2018-09-17T22:07:53.279Z,18.90
2018-09-17T22:10:21.599Z,18.80
2018-09-17T22:12:49.986Z,18.70
2018-09-17T22:15:19.284Z,18.70
2018-09-17T22:17:48.091Z,18.70
2018-09-17T22:20:17.992Z,18.70
2018-09-17T22:22:48.007Z,18.60
2018-09-17T22:25:18.070Z,18.60
2018-09-17T22:27:47.353Z,18.50
2018-09-17T22:30:16.560Z,18.50
2018-09-17T22:32:44.906Z,18.40
2018-09-17T22:35:15.736Z,18.40
2018-09-17T22:37:44.798Z,18.40
2018-09-17T22:40:13.163Z,18.30
2018-09-17T22:42:42.620Z,18.20
2018-09-17T22:45:12.767Z,18.20
2018-09-17T22:47:42.226Z,18.20
2018-09-17T22:50:12.188Z,18.20
2018-09-17T22:52:41.545Z,18.10
2018-09-17T22:55:09.929Z,18.10
2018-09-17T22:57:39.936Z,18.10
2018-09-17T23:00:09.465Z,18.00
2018-09-17T23:02:37.863Z,18.00
2018-09-17T23:05:06.820Z,18.00
2018-09-17T23:07:36.236Z,18.00
2018-09-17T23:10:06.573Z,17.80
2018-09-17T23:12:35.846Z,17.80
2018-09-17T23:15:05.356Z,17.80
2018-09-17T23:17:34.951Z,17.80
2018-09-17T23:20:03.304Z,17.80
2018-09-17T23:22:32.475Z,17.80
2018-09-17T23:25:01.837Z,17.70
2018-09-17T23:27:31.424Z,17.70
2018-09-17T23:30:01.732Z,17.70
2018-09-17T23:32:30.866Z,17.70
2018-09-17T23:35:02.189Z,17.70
2018-09-17T23:37:31.210Z,17.60
2018-09-17T23:40:00.555Z,17.60
2018-09-17T23:42:30.088Z,17.60
2018-09-17T23:44:59.152Z,17.50
2018-09-17T23:47:28.407Z,17.50
2018-09-17T23:49:57.816Z,17.50
2018-09-17T23:52:27.304Z,17.40
2018-09-17T23:54:56.674Z,17.40
2018-09-17T23:57:25.885Z,17.40
2018-09-17T23:59:55.162Z,17.30
